Quad City International Airport
KMLI : now visible

Airfield :











YOU CAN JOIN US ON...

 
LOGIN :

Register | Disclaimer

   EN    FR    IT 

 









Legend :    VFR   Marginal VFR   IFR   Intensive IFR   Very Intensive IFR
Visi :
Ceiling :
>= 8 km
>= 3000ft
5 to 8 km
1000 to 3000 ft
1500m to 5 km
500 to 1000 ft
800 to 1500m
200 to 500 ft
< 800m
< 200 ft
Symbols :   Thunderstorms  Fog  Heavy snow  Heavy precipitations  Wind > 20 kt






- Airport Elevation : 590 ft
- IATA code : MLI


KMLI - Quad City International

CURRENT METAR :
  • 142052Z 30012G21KT 6SM HZ BKN020 OVC034 M03/M07 A2985 RMK AO2 SLP116 T10281072 53009

EXPIRED METARs :
  • 141952Z 31016G24KT 7SM OVC022 M02/M07 A2984 RMK AO2 SLP110 T10221072
  • 141852Z 30011KT 8SM OVC019 M02/M07 A2982 RMK AO2 SLP104 T10171067

TAF KMLI
Valid from the 14 at 19:00 until the 15 at 18:00 UTC


141915Z 1419/1518 30013G20KT P6SM OVC019
FM142200 32012KT P6SM BKN025
FM150100 31011KT P6SM SCT080
FM151000 31006KT P6SM BKN150



MET'MAP, your aeronautical weather chart ! - Copyright ORBIFLY December 2007 - Disclaimer

ORBIFLY MET'MAP TEAM :

Programming & Development : Alexandra Zaïnal
Concept & original design : Baudouin d'Aumeries
Assistance for programming : Marc-Olivier Méhu
Technical & hardware support : Manuel Goepfert

Contact : metmap@orbifly.com




SOURCES & CREDITS :

   NOAA       Earth
Advisory